Humboldt, TN

4:31 PM CDT on August 29, 2014 (GMT -0500)
Blytheville Municipal | Change Station
CLOSE
Current Station
Airport
Location: Blytheville Muni Airport,
Elevation: 256 ft
Nearby Weather Stations

Elev 256 ft 35.94 °N, 89.83 °W | Updated 38 minutes ago

Mostly Cloudy
Mostly Cloudy
85 °F
Feels Like 89 °F
N
5
Wind Variable Wind from SW

Today
High -- | Low -- °F
--% Chance of Precip.
Yesterday
High -- | Low -- °F
Precip. -- in
6:25 AM 7:27 PM
Waxing Crescent, 16% visible
Pressure 29.92 in
Visibility 10.0 miles
Clouds Mostly Cloudy 11000 ft
Heat Index 89 °F
Dew Point 69 °F
Humidity 59%
Rainfall 0.00 in
Snow Depth Not available.
UV 3 out of 12
Pollen 9.70 out of 12
Air Quality Not available.
Flu Activity Not available.
METAR KHKA 292053Z AUTO 22004KT 10SM BKN110 29/21 A2992 RMK AO2 WSHFT 1941 LTG DSNT N AND NW SLP130 T02940206 56016

More Conditions Fewer Conditions

Pressure 29.92 in
Visibility 10.0 miles
Clouds Mostly Cloudy 11000 ft
Heat Index 89 °F
Dew Point 69 °F
Humidity 59%
Rainfall 0.00 in
Snow Depth Not available.
UV 3 out of 12
Pollen 9.70 out of 12
Air Quality Not available.
Flu Activity Not available.
METAR KHKA 292053Z AUTO 22004KT 10SM BKN110 29/21 A2992 RMK AO2 WSHFT 1941 LTG DSNT N AND NW SLP130 T02940206 56016

More Conditions Fewer Conditions

10-Day Weather Forecast

Almanac

Astronomy

Aug. 29, 2014 Rise Set
Actual Time 6:25 AM CDT 7:27 PM CDT
Civil Twilight 5:59 AM CDT 7:53 PM CDT
Nautical Twilight 5:27 AM CDT 8:24 PM CDT
Astronomical Twilight 4:55 AM CDT 8:56 PM CDT
Moon 10:05 AM CDT 9:34 PM CDT
Length of Visible Light 13h 54m
Length of Day
13h 01m
Tomorrow will be 2m 8s shorter.
Waxing Crescent, 16% of the Moon is Illuminated
Today
Waxing Crescent
Sep 2
First Quarter
Sep 8
Full
Sep 15
Last Quarter
Sep 24
New

Today's Extremes

State Highs State Lows

Community

WunderPhotos

Upload Photos

1,748,348 photos uploaded!

Nearby

Snow Depth

Station Depth Elevation
No new snow has been reported.

Earthquake Activity

City Distance Mag. Time & Date
No recent earthquake activity has been reported nearby.
Minimum magnitude displayed is 2.5.

Coastal Water Temperatures

Place Temperature
No Stations Reporting

Nearby Weather Stations